Time;durP1;ratioP1;P1;durP2;ratioP2;P2;SDS_P1;SDS_P2;PMS_P1;PMS_P2;Temp;Humidity;BMP_temperature;BMP_pressure;BME280_temperature;BME280_humidity;BME280_pressure;Samples;Min_cycle;Max_cycle;Signal;HPM_P1;HPM_P2
2022/10/02 00:02:08;;;;;;;12.25;10.95;;;22.10;65.40;;;;;;4439723;63;21125;-29
2022/10/02 00:07:11;;;;;;;12.80;11.27;;;22.10;65.40;;;;;;4465730;59;21036;-30
2022/10/02 00:12:17;;;;;;;12.55;11.25;;;22.10;65.30;;;;;;4451623;59;21132;-31
2022/10/02 00:17:26;;;;;;;12.88;11.12;;;22.10;65.30;;;;;;4480046;59;21060;-32
2022/10/02 00:22:54;;;;;;;12.55;11.20;;;22.10;65.40;;;;;;4439725;63;21056;-27
2022/10/02 00:28:27;;;;;;;12.45;11.05;;;22.10;65.30;;;;;;4450715;59;21052;-34
2022/10/02 00:34:26;;;;;;;12.68;11.27;;;22.10;65.40;;;;;;4495896;59;21629;-26
2022/10/02 00:41:37;;;;;;;11.38;10.10;;;22.10;65.30;;;;;;4491213;59;21494;-35
2022/10/02 00:47:09;;;;;;;11.82;10.40;;;22.10;65.40;;;;;;4477402;59;21093;-26
2022/10/02 00:54:20;;;;;;;10.90;9.70;;;22.10;65.30;;;;;;4446685;59;21085;-34
2022/10/02 01:01:20;;;;;;;11.68;10.45;;;22.10;65.30;;;;;;4453993;59;21443;-33
2022/10/02 01:06:24;;;;;;;11.32;10.13;;;22.10;65.30;;;;;;4439907;63;21603;-36
2022/10/02 01:11:25;;;;;;;11.93;10.55;;;22.10;65.30;;;;;;4461889;59;21064;-27
2022/10/02 01:16:26;;;;;;;12.93;10.10;;;22.10;65.30;;;;;;4456097;58;21499;-29
2022/10/02 01:21:45;;;;;;;11.38;10.18;;;22.10;65.20;;;;;;4440528;62;21096;-29
2022/10/02 01:26:46;;;;;;;10.73;9.63;;;22.10;65.20;;;;;;4440171;63;22297;-28
2022/10/02 01:31:47;;;;;;;11.20;10.02;;;22.10;65.20;;;;;;4458987;59;21118;-32
2022/10/02 01:36:48;;;;;;;11.20;10.10;;;22.10;65.20;;;;;;4467117;58;21490;-29
2022/10/02 01:41:49;;;;;;;12.13;10.40;;;22.10;65.20;;;;;;4525125;58;21941;-30
2022/10/02 01:47:35;;;;;;;10.95;9.85;;;22.10;65.30;;;;;;4454177;58;21068;-27
2022/10/02 01:53:04;;;;;;;10.60;9.50;;;22.10;65.20;;;;;;4440311;59;21112;-36
2022/10/02 01:58:28;;;;;;;10.70;9.60;;;22.10;65.20;;;;;;4447433;59;21085;-29
2022/10/02 02:07:00;;;;;;;10.38;9.13;;;22.10;65.20;;;;;;4459788;59;21518;-28
2022/10/02 02:12:21;;;;;;;10.63;9.52;;;22.10;65.20;;;;;;4439880;63;21085;-31
2022/10/02 02:17:33;;;;;;;11.75;9.63;;;22.10;65.10;;;;;;4440619;59;21115;-30
2022/10/02 02:22:39;;;;;;;11.27;9.80;;;22.10;65.10;;;;;;4440277;59;21060;-32
2022/10/02 02:27:47;;;;;;;10.13;9.10;;;22.10;65.10;;;;;;4455146;59;21578;-31
2022/10/02 02:33:04;;;;;;;10.50;9.40;;;22.00;65.10;;;;;;4451500;59;21052;-30
2022/10/02 02:38:28;;;;;;;10.27;9.25;;;22.10;65.10;;;;;;4445149;59;21028;-29
2022/10/02 02:43:46;;;;;;;9.90;8.90;;;22.10;65.10;;;;;;4439876;63;21080;-32
2022/10/02 02:48:55;;;;;;;10.95;9.63;;;22.10;65.10;;;;;;4457783;59;21513;-33
2022/10/02 02:55:42;;;;;;;10.15;9.07;;;22.10;65.10;;;;;;4459450;59;21140;-29
2022/10/02 03:00:43;;;;;;;10.10;9.00;;;22.10;65.10;;;;;;4440245;63;21056;-31
2022/10/02 03:05:48;;;;;;;10.50;9.18;;;22.10;65.00;;;;;;4442771;59;21367;-33
2022/10/02 03:11:20;;;;;;;10.35;9.27;;;22.00;65.00;;;;;;4482867;59;21045;-31
2022/10/02 03:17:24;;;;;;;10.13;8.88;;;22.00;65.00;;;;;;4461375;59;21056;-28
2022/10/02 03:22:58;;;;;;;10.77;9.18;;;22.10;65.00;;;;;;4478991;59;21105;-29
2022/10/02 03:28:20;;;;;;;10.02;9.00;;;22.10;64.90;;;;;;4440933;59;21048;-29
2022/10/02 03:33:22;;;;;;;9.60;8.60;;;22.00;64.80;;;;;;4450312;59;21072;-29
2022/10/02 03:38:25;;;;;;;10.30;8.88;;;22.10;64.90;;;;;;4477037;59;21167;-29
2022/10/02 03:43:28;;;;;;;9.43;8.43;;;22.00;64.80;;;;;;4451801;59;21726;-28
2022/10/02 03:48:29;;;;;;;9.50;7.95;;;22.00;64.80;;;;;;4473434;59;21097;-36
2022/10/02 03:53:34;;;;;;;10.45;8.40;;;22.00;64.80;;;;;;4443478;59;21069;-30
2022/10/02 03:58:40;;;;;;;8.88;7.97;;;22.00;64.80;;;;;;4440834;63;21076;-29
2022/10/02 04:03:49;;;;;;;10.25;8.80;;;22.00;64.70;;;;;;4483413;59;21064;-27
2022/10/02 04:09:03;;;;;;;8.50;7.70;;;22.00;64.70;;;;;;4468468;59;21096;-28
2022/10/02 04:14:56;;;;;;;9.50;8.35;;;22.00;64.70;;;;;;4487290;59;21080;-32
2022/10/02 04:20:11;;;;;;;10.52;8.38;;;22.00;64.70;;;;;;4440198;63;21525;-31
2022/10/02 04:25:17;;;;;;;9.32;8.02;;;22.00;64.70;;;;;;4471210;59;21450;-29
2022/10/02 04:30:19;;;;;;;8.55;7.62;;;22.00;64.60;;;;;;4443250;59;21064;-36
2022/10/02 04:35:32;;;;;;;9.60;7.93;;;22.00;64.60;;;;;;4444429;59;21076;-35
2022/10/02 04:45:10;;;;;;;9.13;8.13;;;22.00;64.60;;;;;;4468478;59;21052;-30
2022/10/02 04:50:55;;;;;;;9.70;8.40;;;22.00;64.50;;;;;;4456032;59;21068;-28
2022/10/02 04:58:56;;;;;;;8.82;7.93;;;22.00;64.50;;;;;;4448140;59;21147;-30
2022/10/02 05:06:44;;;;;;;9.15;8.20;;;22.00;64.50;;;;;;4468158;59;21723;-27
2022/10/02 05:12:19;;;;;;;9.13;8.23;;;22.00;64.50;;;;;;4453659;59;21582;-33
2022/10/02 05:20:01;;;;;;;9.02;8.10;;;22.00;64.40;;;;;;4440562;63;21117;-27
2022/10/02 05:28:23;;;;;;;8.70;7.80;;;22.00;64.40;;;;;;4459903;59;21128;-29
2022/10/02 05:35:17;;;;;;;9.40;8.07;;;22.00;64.50;;;;;;4444855;59;21044;-29
2022/10/02 05:40:43;;;;;;;10.02;8.07;;;22.00;64.40;;;;;;4440256;63;21084;-29
2022/10/02 05:46:20;;;;;;;8.77;7.87;;;22.00;64.40;;;;;;4468494;59;21123;-26
2022/10/02 05:53:04;;;;;;;9.55;8.25;;;22.00;64.40;;;;;;4446007;59;21076;-33
2022/10/02 05:58:14;;;;;;;9.70;7.30;;;22.00;64.40;;;;;;4449664;59;21586;-29
2022/10/02 06:03:48;;;;;;;9.20;7.57;;;22.00;64.40;;;;;;4449976;59;21176;-27
2022/10/02 06:09:11;;;;;;;8.27;7.45;;;22.00;64.40;;;;;;4440549;60;21032;-30
2022/10/02 06:14:38;;;;;;;9.93;7.70;;;22.00;64.30;;;;;;4449287;59;21580;-29
2022/10/02 06:20:21;;;;;;;9.13;8.07;;;22.00;64.30;;;;;;4442982;59;21133;-35
2022/10/02 06:25:45;;;;;;;9.23;7.55;;;22.00;64.30;;;;;;4461932;59;21156;-30
2022/10/02 06:30:51;;;;;;;8.80;7.90;;;22.00;64.30;;;;;;4445837;59;21100;-30
2022/10/02 06:39:35;;;;;;;8.50;7.60;;;22.00;64.30;;;;;;4484481;59;21705;-36
2022/10/02 06:45:33;;;;;;;8.27;7.35;;;22.00;64.30;;;;;;4442748;59;21088;-28
2022/10/02 06:53:39;;;;;;;8.70;7.72;;;22.00;64.20;;;;;;4441419;59;21549;-29
2022/10/02 07:00:31;;;;;;;10.23;7.37;;;22.00;64.20;;;;;;4449434;59;21072;-29
2022/10/02 07:06:25;;;;;;;8.40;7.50;;;22.00;64.10;;;;;;4482045;59;21184;-27
2022/10/02 07:12:13;;;;;;;8.57;7.50;;;22.00;64.10;;;;;;4452754;59;21045;-28
2022/10/02 07:22:18;;;;;;;9.43;7.95;;;22.00;64.10;;;;;;4442521;59;21567;-28
2022/10/02 07:27:28;;;;;;;;;;;22.00;64.10;;;;;;4458525;59;21080;-27
2022/10/02 07:33:34;;;;;;;9.38;7.78;;;22.00;64.00;;;;;;4440425;58;20062;-33
2022/10/02 07:38:54;;;;;;;8.70;7.80;;;22.00;64.00;;;;;;4460599;59;21024;-30
2022/10/02 07:44:48;;;;;;;11.35;8.10;;;22.00;63.90;;;;;;4440238;63;21581;-34
2022/10/02 07:50:10;;;;;;;10.05;7.62;;;22.00;63.90;;;;;;4456153;59;21603;-28
2022/10/02 07:55:21;;;;;;;10.82;8.38;;;22.00;63.90;;;;;;4461369;59;21609;-29
2022/10/02 08:00:25;;;;;;;10.15;8.32;;;22.00;63.90;;;;;;4453991;59;21053;-29
2022/10/02 08:05:38;;;;;;;10.07;8.57;;;22.00;63.80;;;;;;4462247;59;21099;-31
2022/10/02 08:10:45;;;;;;;9.93;7.78;;;22.00;63.90;;;;;;4454416;59;21073;-27
2022/10/02 08:15:50;;;;;;;11.32;8.70;;;22.00;63.80;;;;;;4484488;59;21514;-29
2022/10/02 08:20:52;;;;;;;10.10;8.57;;;22.00;63.80;;;;;;4440919;59;21243;-29
2022/10/02 08:27:52;;;;;;;8.98;8.07;;;22.00;63.90;;;;;;4440204;63;21039;-28
2022/10/02 08:32:53;;;;;;;10.57;8.45;;;22.00;63.80;;;;;;4449490;59;21064;-30
2022/10/02 08:38:33;;;;;;;9.45;8.35;;;22.00;63.80;;;;;;4448482;59;21076;-27
2022/10/02 08:51:35;;;;;;;9.55;8.05;;;22.00;63.80;;;;;;4440609;59;21156;-29
2022/10/02 09:00:28;;;;;;;8.77;7.80;;;21.90;63.70;;;;;;4479298;59;21085;-28
2022/10/02 09:08:58;;;;;;;10.35;8.80;;;22.00;63.80;;;;;;4441537;59;21137;-30
2022/10/02 09:15:53;;;;;;;10.25;8.07;;;22.00;63.80;;;;;;4462563;59;21530;-34
2022/10/02 09:21:28;;;;;;;11.52;9.15;;;22.00;63.80;;;;;;4450551;59;21119;-29
2022/10/02 09:27:01;;;;;;;11.60;9.25;;;22.00;63.80;;;;;;4442867;59;21175;-27
2022/10/02 09:37:27;;;;;;;13.70;9.65;;;22.00;63.80;;;;;;4487515;59;21045;-28
2022/10/02 09:45:36;;;;;;;12.23;9.32;;;22.00;63.80;;;;;;4474903;59;21563;-30
2022/10/02 09:56:44;;;;;;;11.10;9.15;;;22.00;63.90;;;;;;4445600;59;21076;-27
2022/10/02 10:07:57;;;;;;;12.32;9.43;;;22.00;63.80;;;;;;4440183;59;21116;-30
2022/10/02 10:16:21;;;;;;;10.75;9.23;;;22.00;63.80;;;;;;4440650;59;21064;-29
2022/10/02 10:23:08;;;;;;;11.18;9.13;;;22.00;63.80;;;;;;4467461;59;21024;-32
2022/10/02 10:28:49;;;;;;;11.12;9.15;;;22.00;63.80;;;;;;4473058;59;21028;-31
2022/10/02 10:34:49;;;;;;;12.20;9.68;;;22.00;63.80;;;;;;4452779;59;21041;-31
2022/10/02 10:43:19;;;;;;;11.23;9.45;;;22.00;63.80;;;;;;4464359;59;21059;-31
2022/10/02 10:53:34;;;;;;;11.05;9.73;;;22.00;63.80;;;;;;4456892;59;21159;-28
2022/10/02 11:06:51;;;;;;;11.45;8.98;;;22.00;63.80;;;;;;4464502;59;21056;-29
2022/10/02 11:12:38;;;;;;;10.57;8.57;;;22.00;63.80;;;;;;4461165;59;21064;-30
2022/10/02 11:17:59;;;;;;;10.63;9.25;;;22.00;63.90;;;;;;4481067;59;21534;-29
2022/10/02 11:25:51;;;;;;;11.02;9.27;;;22.00;63.80;;;;;;4461959;59;21649;-28
2022/10/02 11:31:24;;;;;;;10.45;8.82;;;22.00;63.90;;;;;;4475487;59;21777;-27
2022/10/02 11:43:21;;;;;;;11.35;9.05;;;22.00;63.90;;;;;;4441585;59;21675;-29
2022/10/02 11:52:51;;;;;;;10.98;8.73;;;22.00;63.90;;;;;;4440142;59;21652;-30
2022/10/02 11:59:44;;;;;;;12.13;9.25;;;22.00;64.00;;;;;;4461530;59;21128;-32
2022/10/02 12:07:11;;;;;;;10.35;9.25;;;22.00;63.90;;;;;;4490518;59;21080;-30
2022/10/02 12:13:58;;;;;;;10.70;9.10;;;22.00;63.90;;;;;;4439927;60;21044;-29
2022/10/02 12:28:26;;;;;;;10.02;8.30;;;22.00;63.90;;;;;;4439941;59;21084;-26
2022/10/02 12:33:49;;;;;;;9.73;8.73;;;22.00;63.90;;;;;;4456741;59;21163;-35
2022/10/02 12:39:17;;;;;;;10.25;8.93;;;22.00;63.90;;;;;;4443619;59;21140;-29
2022/10/02 12:47:09;;;;;;;10.00;8.43;;;22.00;63.90;;;;;;4477777;59;21116;-27
2022/10/02 12:55:34;;;;;;;10.00;8.63;;;22.00;63.90;;;;;;4439538;63;21088;-29
2022/10/02 13:07:12;;;;;;;9.68;8.40;;;22.00;64.00;;;;;;4489681;59;21092;-28
2022/10/02 13:13:09;;;;;;;12.10;8.60;;;22.00;63.90;;;;;;4446533;59;21612;-30
2022/10/02 13:18:42;;;;;;;10.80;8.48;;;22.00;63.90;;;;;;4450185;59;21056;-29
2022/10/02 13:25:53;;;;;;;10.30;8.65;;;22.00;63.90;;;;;;4454525;59;21636;-27
2022/10/02 13:32:26;;;;;;;10.13;8.77;;;22.00;63.90;;;;;;4446580;59;21608;-26
2022/10/02 13:39:15;;;;;;;10.57;8.77;;;22.00;63.90;;;;;;4439795;63;21554;-26
2022/10/02 13:45:06;;;;;;;10.00;8.68;;;22.00;63.90;;;;;;4452112;59;21091;-28
2022/10/02 13:51:05;;;;;;;11.65;9.75;;;22.00;63.90;;;;;;4466941;59;21112;-35
2022/10/02 13:56:49;;;;;;;10.10;9.10;;;22.00;63.90;;;;;;4459100;59;21057;-30
2022/10/02 14:02:47;;;;;;;10.10;9.00;;;22.00;63.80;;;;;;4440054;63;21104;-30
2022/10/02 14:12:08;;;;;;;10.45;9.35;;;22.00;63.80;;;;;;4450142;59;21073;-27
2022/10/02 14:19:19;;;;;;;10.52;8.82;;;22.00;63.90;;;;;;4458555;59;21117;-28
2022/10/02 14:25:02;;;;;;;10.82;9.50;;;22.00;63.80;;;;;;4459268;59;21108;-32
2022/10/02 14:30:16;;;;;;;9.32;8.40;;;22.00;63.80;;;;;;4463256;59;21580;-29
2022/10/02 14:42:36;;;;;;;10.00;8.38;;;22.00;63.80;;;;;;4455278;59;21103;-29
2022/10/02 14:59:31;;;;;;;10.68;8.73;;;22.00;63.70;;;;;;4481706;59;21032;-27
2022/10/02 15:06:24;;;;;;;9.40;8.43;;;22.00;63.70;;;;;;4462946;59;21121;-30
2022/10/02 15:12:00;;;;;;;10.48;8.43;;;22.00;63.60;;;;;;4453114;59;22345;-29
2022/10/02 15:17:55;;;;;;;12.10;8.52;;;22.00;63.60;;;;;;4472820;59;21413;-29
2022/10/02 15:23:06;;;;;;;10.40;9.30;;;22.00;63.60;;;;;;4451643;59;21084;-28
2022/10/02 15:28:28;;;;;;;9.57;8.63;;;22.00;63.60;;;;;;4445136;59;22538;-28
2022/10/02 15:33:45;;;;;;;9.13;8.23;;;22.00;63.60;;;;;;4451800;59;21111;-30
2022/10/02 15:40:27;;;;;;;9.95;8.70;;;22.00;63.60;;;;;;4440191;59;22130;-29
2022/10/02 15:45:52;;;;;;;10.98;9.77;;;22.00;63.60;;;;;;4446927;59;21180;-31
2022/10/02 15:52:38;;;;;;;10.32;8.98;;;22.00;63.60;;;;;;4486622;59;21112;-30
2022/10/02 16:01:11;;;;;;;;;;;22.00;63.60;;;;;;4450231;59;21036;-27
2022/10/02 16:13:05;;;;;;;10.77;8.82;;;22.00;63.60;;;;;;4444518;59;20669;-31
2022/10/02 16:19:17;;;;;;;;;;;22.00;63.60;;;;;;4455308;59;21176;-28
2022/10/02 16:27:56;;;;;;;10.73;9.63;;;22.00;63.50;;;;;;4440453;58;20122;-32
2022/10/02 16:33:19;;;;;;;10.30;9.20;;;22.00;63.50;;;;;;4448317;59;21131;-29
2022/10/02 16:38:49;;;;;;;11.65;9.35;;;22.00;63.50;;;;;;4440268;63;21502;-26
2022/10/02 16:45:43;;;;;;;10.45;9.35;;;22.00;63.40;;;;;;4449358;59;21076;-34
2022/10/02 16:51:13;;;;;;;10.05;8.88;;;22.00;63.40;;;;;;4444044;59;21064;-27
2022/10/02 16:56:30;;;;;;;12.05;10.38;;;22.00;63.40;;;;;;4442339;59;21100;-33
2022/10/02 17:01:55;;;;;;;11.15;9.73;;;22.00;63.40;;;;;;4441965;59;21545;-27
2022/10/02 17:13:54;;;;;;;11.77;9.43;;;22.00;63.40;;;;;;4447391;59;21525;-28
2022/10/02 17:18:58;;;;;;;10.55;9.25;;;22.00;63.40;;;;;;4478002;59;21040;-27
2022/10/02 17:27:40;;;;;;;11.07;9.05;;;22.00;63.30;;;;;;4439950;63;21108;-26
2022/10/02 17:35:30;;;;;;;9.98;8.90;;;22.00;63.30;;;;;;4463069;59;21594;-27
2022/10/02 17:43:39;;;;;;;10.80;9.63;;;22.00;63.30;;;;;;4441804;59;21638;-28
2022/10/02 17:49:07;;;;;;;10.63;9.27;;;22.00;63.30;;;;;;4440207;63;21127;-30
2022/10/02 18:00:25;;;;;;;11.33;9.73;;;22.00;63.30;;;;;;4440177;59;21180;-26
2022/10/02 18:05:50;;;;;;;12.88;10.35;;;22.00;63.30;;;;;;4450229;59;21490;-34
2022/10/02 18:11:08;;;;;;;13.25;10.60;;;22.00;63.30;;;;;;4443821;59;21144;-29
2022/10/02 18:16:36;;;;;;;13.43;10.35;;;22.00;63.90;;;;;;4452034;59;21554;-30
2022/10/02 18:21:57;;;;;;;11.63;9.50;;;22.00;63.30;;;;;;4456388;59;21092;-34
2022/10/02 18:28:14;;;;;;;11.23;10.07;;;22.00;63.30;;;;;;4476187;59;21124;-34
2022/10/02 18:36:18;;;;;;;12.82;10.35;;;22.00;63.30;;;;;;4456654;59;21165;-35
2022/10/02 18:43:01;;;;;;;14.13;11.05;;;22.00;63.30;;;;;;4453483;59;21060;-33
2022/10/02 18:51:24;;;;;;;11.98;10.32;;;22.00;63.30;;;;;;4441944;59;21629;-28
2022/10/02 18:56:57;;;;;;;12.45;10.52;;;22.00;63.40;;;;;;4441501;59;21060;-31
2022/10/02 19:02:13;;;;;;;12.13;10.70;;;22.00;63.30;;;;;;4442687;59;21036;-29
2022/10/02 19:07:56;;;;;;;12.63;10.82;;;22.00;63.30;;;;;;4443700;59;21120;-31
2022/10/02 19:13:39;;;;;;;13.60;11.55;;;22.00;63.30;;;;;;4458983;59;21048;-33
2022/10/02 19:18:40;;;;;;;13.52;11.25;;;22.00;63.50;;;;;;4481096;58;21089;-28
2022/10/02 19:25:44;;;;;;;13.15;10.93;;;22.00;63.40;;;;;;4452689;58;21088;-26
2022/10/02 19:30:50;;;;;;;13.02;11.32;;;22.00;63.40;;;;;;4440193;59;21132;-31
2022/10/02 19:35:51;;;;;;;13.15;11.00;;;22.00;63.40;;;;;;4456177;59;21518;-31
2022/10/02 19:40:57;;;;;;;14.10;11.43;;;22.00;63.40;;;;;;4470750;58;21570;-29
2022/10/02 19:46:02;;;;;;;14.10;11.52;;;22.00;63.40;;;;;;4474072;59;21085;-32
2022/10/02 19:51:15;;;;;;;13.27;11.88;;;22.00;63.50;;;;;;4440439;63;21614;-33
2022/10/02 19:56:39;;;;;;;14.82;11.90;;;22.00;63.40;;;;;;4461039;59;21538;-33
2022/10/02 20:01:52;;;;;;;14.07;12.10;;;22.00;63.40;;;;;;4445127;59;21678;-31
2022/10/02 20:06:56;;;;;;;13.73;12.32;;;22.00;63.40;;;;;;4458382;59;21090;-28
2022/10/02 20:12:11;;;;;;;14.05;12.48;;;22.00;63.50;;;;;;4446268;59;21599;-34
2022/10/02 20:17:16;;;;;;;15.90;13.13;;;22.00;63.40;;;;;;4447624;59;21156;-35
2022/10/02 20:22:25;;;;;;;15.38;12.02;;;22.00;63.40;;;;;;4528245;59;21064;-30
2022/10/02 20:28:42;;;;;;;14.93;12.90;;;22.00;63.50;;;;;;4473811;59;21045;-30
2022/10/02 20:33:48;;;;;;;16.33;13.38;;;22.00;63.10;;;;;;4490254;59;21522;-28
2022/10/02 20:39:15;;;;;;;15.57;12.95;;;22.00;63.40;;;;;;4449949;59;21084;-32
2022/10/02 20:44:17;;;;;;;14.90;12.73;;;22.00;63.40;;;;;;4440014;63;21546;-30
2022/10/02 20:51:27;;;;;;;15.23;13.25;;;22.00;63.40;;;;;;4456920;59;21052;-33
2022/10/02 20:57:20;;;;;;;15.15;13.02;;;22.00;63.50;;;;;;4464555;59;21048;-28
2022/10/02 21:02:54;;;;;;;16.77;13.73;;;22.00;63.40;;;;;;4462410;59;21105;-35
2022/10/02 21:17:43;;;;;;;16.17;13.85;;;22.00;63.50;;;;;;4513862;59;21116;-29
2022/10/02 21:26:13;;;;;;;15.88;12.88;;;22.00;63.50;;;;;;4443594;59;21060;-33
2022/10/02 21:33:20;;;;;;;14.45;12.88;;;22.00;63.50;;;;;;4440046;63;21622;-34
2022/10/02 21:39:05;;;;;;;15.57;12.30;;;22.00;63.40;;;;;;4446597;59;21085;-34
2022/10/02 21:48:10;;;;;;;14.05;12.10;;;22.00;63.50;;;;;;4440703;59;21614;-33
2022/10/02 21:53:30;;;;;;;;;;;22.00;63.50;;;;;;4442276;63;21121;-32
2022/10/02 21:59:09;;;;;;;15.55;12.68;;;22.00;63.50;;;;;;4462059;59;20521;-35
2022/10/02 22:05:54;;;;;;;14.95;13.10;;;22.00;63.50;;;;;;4441029;59;21123;-28
2022/10/02 22:13:05;;;;;;;15.03;12.70;;;22.00;63.50;;;;;;4458995;59;21662;-30
2022/10/02 22:18:33;;;;;;;14.05;12.07;;;22.00;63.50;;;;;;4450774;59;21177;-34
2022/10/02 22:30:25;;;;;;;14.10;12.60;;;21.90;63.50;;;;;;4450342;59;21036;-30
2022/10/02 22:35:58;;;;;;;17.52;12.43;;;22.00;63.30;;;;;;4461203;59;21064;-28
2022/10/02 22:44:38;;;;;;;13.48;11.68;;;22.00;63.50;;;;;;4447516;59;21036;-27
2022/10/02 22:49:49;;;;;;;14.10;12.55;;;21.90;63.50;;;;;;4440221;59;21159;-35
2022/10/02 22:56:22;;;;;;;13.80;12.32;;;22.00;63.50;;;;;;4439356;59;21047;-33
2022/10/02 23:01:36;;;;;;;13.90;11.90;;;22.00;63.50;;;;;;4456978;59;21028;-33
2022/10/02 23:06:50;;;;;;;13.82;11.85;;;22.00;63.50;;;;;;4460170;59;21092;-30
2022/10/02 23:12:39;;;;;;;14.98;12.13;;;21.90;63.50;;;;;;4476751;59;21148;-33
2022/10/02 23:17:52;;;;;;;12.82;11.45;;;22.00;63.50;;;;;;4440551;59;21069;-30
2022/10/02 23:23:27;;;;;;;13.77;11.55;;;22.00;63.50;;;;;;4446367;59;21061;-29
2022/10/02 23:28:41;;;;;;;13.77;11.80;;;22.00;63.50;;;;;;4450825;59;21511;-28
2022/10/02 23:37:32;;;;;;;13.88;12.18;;;21.90;64.10;;;;;;4447223;59;21127;-28
2022/10/02 23:42:39;;;;;;;13.60;11.77;;;22.00;63.50;;;;;;4458832;59;21118;-31
2022/10/02 23:48:03;;;;;;;;;;;22.00;63.50;;;;;;4452676;59;21127;-32
2022/10/02 23:56:48;;;;;;;13.25;11.73;;;21.90;64.10;;;;;;4443001;58;20108;-33
